sensor_id;sensor_type;location;lat;lon;timestamp;temperature;humidity
12413;DHT22;13877;18.896;-99.222;2023-09-19T00:00:47;24.60;1.00
12413;DHT22;13877;18.896;-99.222;2023-09-19T00:03:15;24.60;1.00
12413;DHT22;13877;18.896;-99.222;2023-09-19T00:05:43;24.60;1.00
12413;DHT22;13877;18.896;-99.222;2023-09-19T00:08:11;24.60;1.00
12413;DHT22;13877;18.896;-99.222;2023-09-19T00:10:40;24.60;1.00
12413;DHT22;13877;18.896;-99.222;2023-09-19T00:13:09;24.60;1.00
12413;DHT22;13877;18.896;-99.222;2023-09-19T00:15:42;24.60;1.00
12413;DHT22;13877;18.896;-99.222;2023-09-19T00:18:15;24.50;1.00
12413;DHT22;13877;18.896;-99.222;2023-09-19T00:20:43;24.50;1.00
12413;DHT22;13877;18.896;-99.222;2023-09-19T00:23:18;24.40;1.00
12413;DHT22;13877;18.896;-99.222;2023-09-19T00:25:45;24.40;1.00
12413;DHT22;13877;18.896;-99.222;2023-09-19T00:28:12;24.40;1.00
12413;DHT22;13877;18.896;-99.222;2023-09-19T00:30:43;24.40;1.00
12413;DHT22;13877;18.896;-99.222;2023-09-19T00:33:11;24.40;1.00
12413;DHT22;13877;18.896;-99.222;2023-09-19T00:35:53;24.40;1.00
12413;DHT22;13877;18.896;-99.222;2023-09-19T00:38:21;24.30;1.00
12413;DHT22;13877;18.896;-99.222;2023-09-19T00:40:54;24.20;1.00
12413;DHT22;13877;18.896;-99.222;2023-09-19T00:43:23;24.10;1.00
12413;DHT22;13877;18.896;-99.222;2023-09-19T00:45:54;24.00;1.00
12413;DHT22;13877;18.896;-99.222;2023-09-19T00:48:22;24.00;1.00
12413;DHT22;13877;18.896;-99.222;2023-09-19T00:50:51;23.90;1.00
12413;DHT22;13877;18.896;-99.222;2023-09-19T00:53:22;23.70;1.00
12413;DHT22;13877;18.896;-99.222;2023-09-19T00:55:51;23.60;1.00
12413;DHT22;13877;18.896;-99.222;2023-09-19T00:58:19;23.50;1.00
12413;DHT22;13877;18.896;-99.222;2023-09-19T01:00:50;23.50;1.00
12413;DHT22;13877;18.896;-99.222;2023-09-19T01:03:18;23.30;1.00
12413;DHT22;13877;18.896;-99.222;2023-09-19T01:05:45;23.20;1.00
12413;DHT22;13877;18.896;-99.222;2023-09-19T01:08:14;23.20;1.00
12413;DHT22;13877;18.896;-99.222;2023-09-19T01:10:51;23.10;1.00
12413;DHT22;13877;18.896;-99.222;2023-09-19T01:13:40;23.10;1.00
12413;DHT22;13877;18.896;-99.222;2023-09-19T01:16:28;23.10;1.00
12413;DHT22;13877;18.896;-99.222;2023-09-19T01:21:53;23.10;1.00
12413;DHT22;13877;18.896;-99.222;2023-09-19T01:25:04;23.20;1.00
12413;DHT22;13877;18.896;-99.222;2023-09-19T01:28:00;23.20;1.00
12413;DHT22;13877;18.896;-99.222;2023-09-19T01:30:35;23.30;1.00
12413;DHT22;13877;18.896;-99.222;2023-09-19T01:33:06;23.30;1.00
12413;DHT22;13877;18.896;-99.222;2023-09-19T01:35:34;23.40;1.00
12413;DHT22;13877;18.896;-99.222;2023-09-19T01:38:06;23.40;1.00
12413;DHT22;13877;18.896;-99.222;2023-09-19T01:40:42;23.40;1.00
12413;DHT22;13877;18.896;-99.222;2023-09-19T01:43:22;23.30;1.00
12413;DHT22;13877;18.896;-99.222;2023-09-19T01:52:20;23.20;1.00
12413;DHT22;13877;18.896;-99.222;2023-09-19T01:54:52;23.20;1.00
12413;DHT22;13877;18.896;-99.222;2023-09-19T01:57:31;23.20;1.00
12413;DHT22;13877;18.896;-99.222;2023-09-19T02:00:07;23.30;1.00
12413;DHT22;13877;18.896;-99.222;2023-09-19T02:02:45;23.30;1.00
12413;DHT22;13877;18.896;-99.222;2023-09-19T02:05:21;23.20;1.00
12413;DHT22;13877;18.896;-99.222;2023-09-19T02:07:50;23.10;1.00
12413;DHT22;13877;18.896;-99.222;2023-09-19T02:10:17;23.10;1.00
12413;DHT22;13877;18.896;-99.222;2023-09-19T02:12:44;23.10;1.00
12413;DHT22;13877;18.896;-99.222;2023-09-19T02:15:14;23.10;1.00
12413;DHT22;13877;18.896;-99.222;2023-09-19T02:17:43;23.10;1.00
12413;DHT22;13877;18.896;-99.222;2023-09-19T02:20:12;23.00;1.00
12413;DHT22;13877;18.896;-99.222;2023-09-19T02:22:40;23.10;1.00
12413;DHT22;13877;18.896;-99.222;2023-09-19T02:25:08;23.30;1.00
12413;DHT22;13877;18.896;-99.222;2023-09-19T02:27:36;23.40;1.00
12413;DHT22;13877;18.896;-99.222;2023-09-19T02:30:04;23.50;1.00
12413;DHT22;13877;18.896;-99.222;2023-09-19T02:32:33;23.50;1.00
12413;DHT22;13877;18.896;-99.222;2023-09-19T02:35:03;23.50;1.00
12413;DHT22;13877;18.896;-99.222;2023-09-19T02:37:31;23.20;1.00
12413;DHT22;13877;18.896;-99.222;2023-09-19T02:40:00;23.00;1.00
12413;DHT22;13877;18.896;-99.222;2023-09-19T02:42:27;22.80;1.00
12413;DHT22;13877;18.896;-99.222;2023-09-19T02:44:54;22.70;1.00
12413;DHT22;13877;18.896;-99.222;2023-09-19T02:47:23;22.70;1.00
12413;DHT22;13877;18.896;-99.222;2023-09-19T02:49:50;22.60;1.00
12413;DHT22;13877;18.896;-99.222;2023-09-19T02:52:17;22.40;1.00
12413;DHT22;13877;18.896;-99.222;2023-09-19T02:54:45;22.00;1.00
12413;DHT22;13877;18.896;-99.222;2023-09-19T02:57:12;21.70;1.00
12413;DHT22;13877;18.896;-99.222;2023-09-19T02:59:41;21.60;1.00
12413;DHT22;13877;18.896;-99.222;2023-09-19T03:02:09;21.40;1.00
12413;DHT22;13877;18.896;-99.222;2023-09-19T03:04:37;21.10;1.00
12413;DHT22;13877;18.896;-99.222;2023-09-19T03:07:04;20.80;1.00
12413;DHT22;13877;18.896;-99.222;2023-09-19T03:09:32;20.60;1.00
12413;DHT22;13877;18.896;-99.222;2023-09-19T03:12:00;20.60;1.00
12413;DHT22;13877;18.896;-99.222;2023-09-19T03:14:27;20.50;1.00
12413;DHT22;13877;18.896;-99.222;2023-09-19T03:16:58;20.10;1.00
12413;DHT22;13877;18.896;-99.222;2023-09-19T03:19:26;19.80;1.00
12413;DHT22;13877;18.896;-99.222;2023-09-19T03:21:57;19.80;1.00
12413;DHT22;13877;18.896;-99.222;2023-09-19T03:24:24;19.90;1.00
12413;DHT22;13877;18.896;-99.222;2023-09-19T03:26:53;19.90;1.00
12413;DHT22;13877;18.896;-99.222;2023-09-19T03:29:20;20.00;1.00
12413;DHT22;13877;18.896;-99.222;2023-09-19T03:31:48;20.10;1.00
12413;DHT22;13877;18.896;-99.222;2023-09-19T03:34:15;20.50;1.00
12413;DHT22;13877;18.896;-99.222;2023-09-19T03:36:43;20.70;1.00
12413;DHT22;13877;18.896;-99.222;2023-09-19T03:39:10;20.60;1.00
12413;DHT22;13877;18.896;-99.222;2023-09-19T03:41:37;20.80;1.00
12413;DHT22;13877;18.896;-99.222;2023-09-19T03:44:05;20.60;1.00
12413;DHT22;13877;18.896;-99.222;2023-09-19T03:46:33;20.60;1.00
12413;DHT22;13877;18.896;-99.222;2023-09-19T03:49:02;20.60;1.00
12413;DHT22;13877;18.896;-99.222;2023-09-19T03:51:29;20.60;1.00
12413;DHT22;13877;18.896;-99.222;2023-09-19T03:53:56;20.60;1.00
12413;DHT22;13877;18.896;-99.222;2023-09-19T03:56:23;20.60;1.00
12413;DHT22;13877;18.896;-99.222;2023-09-19T03:58:50;20.70;1.00
12413;DHT22;13877;18.896;-99.222;2023-09-19T04:01:18;20.80;1.00
12413;DHT22;13877;18.896;-99.222;2023-09-19T04:03:45;20.80;1.00
12413;DHT22;13877;18.896;-99.222;2023-09-19T04:06:14;20.90;1.00
12413;DHT22;13877;18.896;-99.222;2023-09-19T04:08:42;21.00;1.00
12413;DHT22;13877;18.896;-99.222;2023-09-19T04:11:12;20.90;1.00
12413;DHT22;13877;18.896;-99.222;2023-09-19T04:13:39;20.90;1.00
12413;DHT22;13877;18.896;-99.222;2023-09-19T04:16:06;21.00;1.00
12413;DHT22;13877;18.896;-99.222;2023-09-19T04:18:33;21.10;1.00
12413;DHT22;13877;18.896;-99.222;2023-09-19T04:21:04;21.20;1.00
12413;DHT22;13877;18.896;-99.222;2023-09-19T04:23:32;21.20;1.00
12413;DHT22;13877;18.896;-99.222;2023-09-19T04:26:00;21.10;1.00
12413;DHT22;13877;18.896;-99.222;2023-09-19T04:28:27;20.80;1.00
12413;DHT22;13877;18.896;-99.222;2023-09-19T04:30:54;20.50;1.00
12413;DHT22;13877;18.896;-99.222;2023-09-19T04:33:21;20.10;1.00
12413;DHT22;13877;18.896;-99.222;2023-09-19T04:35:52;19.60;1.00
12413;DHT22;13877;18.896;-99.222;2023-09-19T04:38:19;19.30;1.00
12413;DHT22;13877;18.896;-99.222;2023-09-19T04:40:47;19.10;6.40
12413;DHT22;13877;18.896;-99.222;2023-09-19T04:43:14;19.00;99.90
12413;DHT22;13877;18.896;-99.222;2023-09-19T04:45:42;18.90;99.90
12413;DHT22;13877;18.896;-99.222;2023-09-19T04:48:09;18.90;99.90
12413;DHT22;13877;18.896;-99.222;2023-09-19T04:50:37;18.90;99.90
12413;DHT22;13877;18.896;-99.222;2023-09-19T04:53:05;18.80;1.00
12413;DHT22;13877;18.896;-99.222;2023-09-19T04:55:33;18.60;1.00
12413;DHT22;13877;18.896;-99.222;2023-09-19T04:58:01;18.20;1.00
12413;DHT22;13877;18.896;-99.222;2023-09-19T05:00:29;18.00;1.00
12413;DHT22;13877;18.896;-99.222;2023-09-19T05:02:57;18.00;99.90
12413;DHT22;13877;18.896;-99.222;2023-09-19T05:05:25;18.10;99.90
12413;DHT22;13877;18.896;-99.222;2023-09-19T05:07:55;18.10;99.90
12413;DHT22;13877;18.896;-99.222;2023-09-19T05:10:23;18.20;99.90
12413;DHT22;13877;18.896;-99.222;2023-09-19T05:12:53;18.30;99.90
12413;DHT22;13877;18.896;-99.222;2023-09-19T05:15:21;18.30;99.90
12413;DHT22;13877;18.896;-99.222;2023-09-19T05:17:49;18.30;99.90
12413;DHT22;13877;18.896;-99.222;2023-09-19T05:20:21;18.40;99.90
12413;DHT22;13877;18.896;-99.222;2023-09-19T05:25:32;18.30;99.90
12413;DHT22;13877;18.896;-99.222;2023-09-19T05:27:59;18.30;1.00
12413;DHT22;13877;18.896;-99.222;2023-09-19T05:30:30;18.30;1.00
12413;DHT22;13877;18.896;-99.222;2023-09-19T05:32:57;18.30;1.00
12413;DHT22;13877;18.896;-99.222;2023-09-19T05:35:25;18.30;1.00
12413;DHT22;13877;18.896;-99.222;2023-09-19T05:37:53;18.30;99.90
12413;DHT22;13877;18.896;-99.222;2023-09-19T05:40:22;18.40;1.00
12413;DHT22;13877;18.896;-99.222;2023-09-19T05:42:50;18.40;1.00
12413;DHT22;13877;18.896;-99.222;2023-09-19T05:45:17;18.40;99.90
12413;DHT22;13877;18.896;-99.222;2023-09-19T05:48:12;18.50;1.00
12413;DHT22;13877;18.896;-99.222;2023-09-19T05:50:40;18.50;1.00
12413;DHT22;13877;18.896;-99.222;2023-09-19T05:53:07;18.60;1.00
12413;DHT22;13877;18.896;-99.222;2023-09-19T05:55:34;18.60;1.00
12413;DHT22;13877;18.896;-99.222;2023-09-19T05:58:02;18.60;1.00
12413;DHT22;13877;18.896;-99.222;2023-09-19T06:00:30;18.60;1.00
12413;DHT22;13877;18.896;-99.222;2023-09-19T06:02:58;18.70;99.90
12413;DHT22;13877;18.896;-99.222;2023-09-19T06:05:27;18.70;99.90
12413;DHT22;13877;18.896;-99.222;2023-09-19T06:07:54;18.80;99.90
12413;DHT22;13877;18.896;-99.222;2023-09-19T06:10:21;18.90;99.90
12413;DHT22;13877;18.896;-99.222;2023-09-19T06:12:49;19.00;1.00
12413;DHT22;13877;18.896;-99.222;2023-09-19T06:15:17;19.10;1.00
12413;DHT22;13877;18.896;-99.222;2023-09-19T06:17:53;19.10;1.00
12413;DHT22;13877;18.896;-99.222;2023-09-19T06:20:24;19.20;1.00
12413;DHT22;13877;18.896;-99.222;2023-09-19T06:22:51;19.20;1.00
12413;DHT22;13877;18.896;-99.222;2023-09-19T06:25:20;19.20;1.00
12413;DHT22;13877;18.896;-99.222;2023-09-19T06:27:48;19.20;58.20
12413;DHT22;13877;18.896;-99.222;2023-09-19T06:30:15;19.10;3.70
12413;DHT22;13877;18.896;-99.222;2023-09-19T06:32:44;19.10;99.90
12413;DHT22;13877;18.896;-99.222;2023-09-19T06:35:13;19.10;99.90
12413;DHT22;13877;18.896;-99.222;2023-09-19T06:37:41;19.00;99.90
12413;DHT22;13877;18.896;-99.222;2023-09-19T06:40:10;19.00;99.90
12413;DHT22;13877;18.896;-99.222;2023-09-19T06:42:44;19.00;99.90
12413;DHT22;13877;18.896;-99.222;2023-09-19T06:45:15;19.00;99.90
12413;DHT22;13877;18.896;-99.222;2023-09-19T06:47:45;18.90;99.90
12413;DHT22;13877;18.896;-99.222;2023-09-19T06:50:16;19.00;99.90
12413;DHT22;13877;18.896;-99.222;2023-09-19T06:52:46;19.00;99.90
12413;DHT22;13877;18.896;-99.222;2023-09-19T06:55:19;19.00;91.70
12413;DHT22;13877;18.896;-99.222;2023-09-19T06:57:47;19.00;78.70
12413;DHT22;13877;18.896;-99.222;2023-09-19T07:00:15;19.10;39.00
12413;DHT22;13877;18.896;-99.222;2023-09-19T07:02:42;19.10;99.90
12413;DHT22;13877;18.896;-99.222;2023-09-19T07:05:10;19.10;99.90
12413;DHT22;13877;18.896;-99.222;2023-09-19T07:07:37;19.10;29.70
12413;DHT22;13877;18.896;-99.222;2023-09-19T07:10:04;19.00;15.60
12413;DHT22;13877;18.896;-99.222;2023-09-19T07:12:32;19.00;1.00
12413;DHT22;13877;18.896;-99.222;2023-09-19T07:14:59;18.90;10.50
12413;DHT22;13877;18.896;-99.222;2023-09-19T07:17:26;18.90;99.90
12413;DHT22;13877;18.896;-99.222;2023-09-19T07:19:54;18.90;99.90
12413;DHT22;13877;18.896;-99.222;2023-09-19T07:22:21;18.90;99.90
12413;DHT22;13877;18.896;-99.222;2023-09-19T07:24:50;18.90;99.90
12413;DHT22;13877;18.896;-99.222;2023-09-19T07:27:17;19.00;99.90
12413;DHT22;13877;18.896;-99.222;2023-09-19T07:29:44;18.90;99.90
12413;DHT22;13877;18.896;-99.222;2023-09-19T07:32:12;18.90;99.90
12413;DHT22;13877;18.896;-99.222;2023-09-19T07:34:40;18.90;99.90
12413;DHT22;13877;18.896;-99.222;2023-09-19T07:37:07;18.90;99.90
12413;DHT22;13877;18.896;-99.222;2023-09-19T07:39:36;18.90;99.90
12413;DHT22;13877;18.896;-99.222;2023-09-19T07:42:03;18.90;99.90
12413;DHT22;13877;18.896;-99.222;2023-09-19T07:44:31;18.90;99.90
12413;DHT22;13877;18.896;-99.222;2023-09-19T07:46:58;18.90;1.00
12413;DHT22;13877;18.896;-99.222;2023-09-19T07:49:25;18.90;99.90
12413;DHT22;13877;18.896;-99.222;2023-09-19T07:51:52;18.90;1.00
12413;DHT22;13877;18.896;-99.222;2023-09-19T07:54:21;18.90;99.90
12413;DHT22;13877;18.896;-99.222;2023-09-19T07:56:48;18.90;99.90
12413;DHT22;13877;18.896;-99.222;2023-09-19T07:59:15;18.90;1.00
12413;DHT22;13877;18.896;-99.222;2023-09-19T08:01:42;18.90;1.00
12413;DHT22;13877;18.896;-99.222;2023-09-19T08:04:11;19.00;99.90
12413;DHT22;13877;18.896;-99.222;2023-09-19T08:06:38;19.00;1.00
12413;DHT22;13877;18.896;-99.222;2023-09-19T08:09:06;19.00;99.90
12413;DHT22;13877;18.896;-99.222;2023-09-19T08:11:35;19.00;99.90
12413;DHT22;13877;18.896;-99.222;2023-09-19T08:14:02;19.00;99.90
12413;DHT22;13877;18.896;-99.222;2023-09-19T08:16:32;19.00;99.90
12413;DHT22;13877;18.896;-99.222;2023-09-19T08:18:59;19.00;99.90
12413;DHT22;13877;18.896;-99.222;2023-09-19T08:21:27;19.00;99.90
12413;DHT22;13877;18.896;-99.222;2023-09-19T08:23:56;19.00;1.00
12413;DHT22;13877;18.896;-99.222;2023-09-19T08:26:23;19.00;99.90
12413;DHT22;13877;18.896;-99.222;2023-09-19T08:28:51;19.00;99.90
12413;DHT22;13877;18.896;-99.222;2023-09-19T08:31:18;19.00;1.00
12413;DHT22;13877;18.896;-99.222;2023-09-19T08:33:45;19.00;99.90
12413;DHT22;13877;18.896;-99.222;2023-09-19T08:36:15;19.00;99.90
12413;DHT22;13877;18.896;-99.222;2023-09-19T08:38:43;19.00;99.90
12413;DHT22;13877;18.896;-99.222;2023-09-19T08:41:11;19.00;1.00
12413;DHT22;13877;18.896;-99.222;2023-09-19T08:43:38;19.00;99.90
12413;DHT22;13877;18.896;-99.222;2023-09-19T08:46:14;19.00;99.90
12413;DHT22;13877;18.896;-99.222;2023-09-19T08:49:03;19.10;1.00
12413;DHT22;13877;18.896;-99.222;2023-09-19T08:51:43;19.10;1.00
12413;DHT22;13877;18.896;-99.222;2023-09-19T08:54:22;19.10;1.00
12413;DHT22;13877;18.896;-99.222;2023-09-19T08:56:54;19.00;1.00
12413;DHT22;13877;18.896;-99.222;2023-09-19T08:59:24;19.00;1.00
12413;DHT22;13877;18.896;-99.222;2023-09-19T09:01:54;19.00;1.00
12413;DHT22;13877;18.896;-99.222;2023-09-19T09:04:23;18.90;1.00
12413;DHT22;13877;18.896;-99.222;2023-09-19T09:06:53;18.90;1.00
12413;DHT22;13877;18.896;-99.222;2023-09-19T09:09:21;18.90;1.00
12413;DHT22;13877;18.896;-99.222;2023-09-19T09:11:49;18.90;1.00
12413;DHT22;13877;18.896;-99.222;2023-09-19T09:14:20;18.80;1.00
12413;DHT22;13877;18.896;-99.222;2023-09-19T09:16:48;18.80;1.00
12413;DHT22;13877;18.896;-99.222;2023-09-19T09:19:15;18.80;1.00
12413;DHT22;13877;18.896;-99.222;2023-09-19T09:21:51;18.80;99.90
12413;DHT22;13877;18.896;-99.222;2023-09-19T09:24:29;18.80;1.00
12413;DHT22;13877;18.896;-99.222;2023-09-19T09:26:57;18.80;99.90
12413;DHT22;13877;18.896;-99.222;2023-09-19T09:29:47;18.80;1.00
12413;DHT22;13877;18.896;-99.222;2023-09-19T09:32:25;18.80;1.00
12413;DHT22;13877;18.896;-99.222;2023-09-19T09:34:58;18.70;1.00
12413;DHT22;13877;18.896;-99.222;2023-09-19T09:37:27;18.70;1.00
12413;DHT22;13877;18.896;-99.222;2023-09-19T09:40:01;18.80;1.00
12413;DHT22;13877;18.896;-99.222;2023-09-19T09:42:41;18.80;99.90
12413;DHT22;13877;18.896;-99.222;2023-09-19T09:45:21;18.80;99.90
12413;DHT22;13877;18.896;-99.222;2023-09-19T09:48:09;18.70;1.00
12413;DHT22;13877;18.896;-99.222;2023-09-19T09:50:48;18.70;1.00
12413;DHT22;13877;18.896;-99.222;2023-09-19T09:53:34;18.80;99.90
12413;DHT22;13877;18.896;-99.222;2023-09-19T09:56:04;18.80;1.00
12413;DHT22;13877;18.896;-99.222;2023-09-19T09:58:34;18.70;1.00
12413;DHT22;13877;18.896;-99.222;2023-09-19T10:01:02;18.60;1.00
12413;DHT22;13877;18.896;-99.222;2023-09-19T10:03:39;18.60;1.00
12413;DHT22;13877;18.896;-99.222;2023-09-19T10:06:10;18.50;1.00
12413;DHT22;13877;18.896;-99.222;2023-09-19T10:09:06;18.50;1.00
12413;DHT22;13877;18.896;-99.222;2023-09-19T10:11:45;18.50;1.00
12413;DHT22;13877;18.896;-99.222;2023-09-19T10:14:16;18.30;37.90
12413;DHT22;13877;18.896;-99.222;2023-09-19T10:16:48;18.20;99.90
12413;DHT22;13877;18.896;-99.222;2023-09-19T10:19:30;18.30;99.90
12413;DHT22;13877;18.896;-99.222;2023-09-19T10:22:01;18.30;99.90
12413;DHT22;13877;18.896;-99.222;2023-09-19T10:24:29;18.20;1.00
12413;DHT22;13877;18.896;-99.222;2023-09-19T10:27:00;18.10;61.20
12413;DHT22;13877;18.896;-99.222;2023-09-19T10:29:28;18.00;99.90
12413;DHT22;13877;18.896;-99.222;2023-09-19T10:31:59;17.90;1.00
12413;DHT22;13877;18.896;-99.222;2023-09-19T10:34:29;17.70;1.00
12413;DHT22;13877;18.896;-99.222;2023-09-19T10:36:56;17.70;99.90
12413;DHT22;13877;18.896;-99.222;2023-09-19T10:39:24;17.70;88.00
12413;DHT22;13877;18.896;-99.222;2023-09-19T10:41:54;17.80;1.00
12413;DHT22;13877;18.896;-99.222;2023-09-19T10:44:25;17.80;1.00
12413;DHT22;13877;18.896;-99.222;2023-09-19T10:46:55;17.80;1.00
12413;DHT22;13877;18.896;-99.222;2023-09-19T10:49:24;17.70;1.00
12413;DHT22;13877;18.896;-99.222;2023-09-19T10:51:55;17.70;1.00
12413;DHT22;13877;18.896;-99.222;2023-09-19T10:54:30;17.60;1.00
12413;DHT22;13877;18.896;-99.222;2023-09-19T10:56:59;17.60;1.00
12413;DHT22;13877;18.896;-99.222;2023-09-19T10:59:27;17.60;99.90
12413;DHT22;13877;18.896;-99.222;2023-09-19T11:02:16;17.60;99.90
12413;DHT22;13877;18.896;-99.222;2023-09-19T11:04:44;17.50;99.90
12413;DHT22;13877;18.896;-99.222;2023-09-19T11:07:15;17.50;99.90
12413;DHT22;13877;18.896;-99.222;2023-09-19T11:15:06;17.70;99.90
12413;DHT22;13877;18.896;-99.222;2023-09-19T11:17:44;17.70;99.90
12413;DHT22;13877;18.896;-99.222;2023-09-19T11:20:16;17.70;99.90
12413;DHT22;13877;18.896;-99.222;2023-09-19T11:30:50;17.90;99.90
12413;DHT22;13877;18.896;-99.222;2023-09-19T11:33:42;18.00;99.90
12413;DHT22;13877;18.896;-99.222;2023-09-19T11:36:14;18.00;99.90
12413;DHT22;13877;18.896;-99.222;2023-09-19T11:46:33;18.00;99.90
12413;DHT22;13877;18.896;-99.222;2023-09-19T11:49:08;18.00;99.90
12413;DHT22;13877;18.896;-99.222;2023-09-19T11:51:43;18.00;99.90
12413;DHT22;13877;18.896;-99.222;2023-09-19T11:54:13;17.90;99.90
12413;DHT22;13877;18.896;-99.222;2023-09-19T11:56:52;18.00;99.90
12413;DHT22;13877;18.896;-99.222;2023-09-19T11:59:23;17.90;99.90
12413;DHT22;13877;18.896;-99.222;2023-09-19T12:01:53;18.00;99.90
12413;DHT22;13877;18.896;-99.222;2023-09-19T12:04:42;17.90;99.90
12413;DHT22;13877;18.896;-99.222;2023-09-19T12:07:14;17.90;99.90
12413;DHT22;13877;18.896;-99.222;2023-09-19T12:09:47;17.90;99.90
12413;DHT22;13877;18.896;-99.222;2023-09-19T12:12:24;17.90;99.90
12413;DHT22;13877;18.896;-99.222;2023-09-19T12:14:55;17.90;99.90
12413;DHT22;13877;18.896;-99.222;2023-09-19T12:17:41;18.00;99.90
12413;DHT22;13877;18.896;-99.222;2023-09-19T12:20:10;18.00;99.90
12413;DHT22;13877;18.896;-99.222;2023-09-19T12:22:41;17.90;99.90
12413;DHT22;13877;18.896;-99.222;2023-09-19T12:25:10;17.80;99.90
12413;DHT22;13877;18.896;-99.222;2023-09-19T12:27:49;17.80;99.90
12413;DHT22;13877;18.896;-99.222;2023-09-19T12:30:21;17.90;99.90
12413;DHT22;13877;18.896;-99.222;2023-09-19T12:32:54;17.90;99.90
12413;DHT22;13877;18.896;-99.222;2023-09-19T12:35:32;17.90;99.90
12413;DHT22;13877;18.896;-99.222;2023-09-19T12:38:03;17.90;99.90
12413;DHT22;13877;18.896;-99.222;2023-09-19T12:40:30;18.00;99.90
12413;DHT22;13877;18.896;-99.222;2023-09-19T12:43:00;18.00;99.90
12413;DHT22;13877;18.896;-99.222;2023-09-19T12:45:31;17.90;99.90
12413;DHT22;13877;18.896;-99.222;2023-09-19T12:48:21;17.90;99.90
12413;DHT22;13877;18.896;-99.222;2023-09-19T12:51:09;17.90;99.90
12413;DHT22;13877;18.896;-99.222;2023-09-19T12:53:46;17.80;99.90
12413;DHT22;13877;18.896;-99.222;2023-09-19T12:56:18;17.80;99.90
12413;DHT22;13877;18.896;-99.222;2023-09-19T12:58:55;17.80;99.90
12413;DHT22;13877;18.896;-99.222;2023-09-19T13:01:25;17.80;99.90
12413;DHT22;13877;18.896;-99.222;2023-09-19T13:04:12;18.00;99.90
12413;DHT22;13877;18.896;-99.222;2023-09-19T13:06:42;18.10;99.90
12413;DHT22;13877;18.896;-99.222;2023-09-19T13:09:11;18.20;99.90
12413;DHT22;13877;18.896;-99.222;2023-09-19T13:11:39;18.40;99.90
12413;DHT22;13877;18.896;-99.222;2023-09-19T13:22:41;19.20;1.00
12413;DHT22;13877;18.896;-99.222;2023-09-19T13:25:12;19.30;99.90
12413;DHT22;13877;18.896;-99.222;2023-09-19T13:27:55;19.40;99.90
12413;DHT22;13877;18.896;-99.222;2023-09-19T13:30:24;19.50;1.00
12413;DHT22;13877;18.896;-99.222;2023-09-19T13:32:52;19.80;7.10
12413;DHT22;13877;18.896;-99.222;2023-09-19T13:35:20;20.20;1.00
12413;DHT22;13877;18.896;-99.222;2023-09-19T13:37:48;20.20;1.00
12413;DHT22;13877;18.896;-99.222;2023-09-19T13:40:18;20.40;1.00
12413;DHT22;13877;18.896;-99.222;2023-09-19T13:42:45;20.60;1.00
12413;DHT22;13877;18.896;-99.222;2023-09-19T13:45:12;20.70;1.00
12413;DHT22;13877;18.896;-99.222;2023-09-19T13:47:42;20.60;99.90
12413;DHT22;13877;18.896;-99.222;2023-09-19T13:50:09;20.50;1.00
12413;DHT22;13877;18.896;-99.222;2023-09-19T13:52:36;20.50;99.90
12413;DHT22;13877;18.896;-99.222;2023-09-19T13:55:04;20.80;1.00
12413;DHT22;13877;18.896;-99.222;2023-09-19T13:57:33;21.00;1.00
12413;DHT22;13877;18.896;-99.222;2023-09-19T14:00:00;21.40;99.90
12413;DHT22;13877;18.896;-99.222;2023-09-19T14:02:38;21.80;99.40
12413;DHT22;13877;18.896;-99.222;2023-09-19T14:05:05;21.70;99.90
12413;DHT22;13877;18.896;-99.222;2023-09-19T14:07:33;21.70;76.80
12413;DHT22;13877;18.896;-99.222;2023-09-19T14:10:00;22.10;1.00
12413;DHT22;13877;18.896;-99.222;2023-09-19T14:12:27;21.80;23.70
12413;DHT22;13877;18.896;-99.222;2023-09-19T14:14:54;21.30;76.30
12413;DHT22;13877;18.896;-99.222;2023-09-19T14:17:22;21.50;88.00
12413;DHT22;13877;18.896;-99.222;2023-09-19T14:19:50;21.80;29.00
12413;DHT22;13877;18.896;-99.222;2023-09-19T14:22:17;22.20;1.00
12413;DHT22;13877;18.896;-99.222;2023-09-19T14:24:45;22.50;1.00
12413;DHT22;13877;18.896;-99.222;2023-09-19T14:27:11;22.90;1.00
12413;DHT22;13877;18.896;-99.222;2023-09-19T14:29:39;23.10;1.00
12413;DHT22;13877;18.896;-99.222;2023-09-19T14:32:05;23.20;1.00
12413;DHT22;13877;18.896;-99.222;2023-09-19T14:34:33;23.50;1.00
12413;DHT22;13877;18.896;-99.222;2023-09-19T14:37:00;23.70;1.00
12413;DHT22;13877;18.896;-99.222;2023-09-19T14:39:29;23.90;1.00
12413;DHT22;13877;18.896;-99.222;2023-09-19T14:41:55;24.00;1.00
12413;DHT22;13877;18.896;-99.222;2023-09-19T14:44:23;24.30;1.00
12413;DHT22;13877;18.896;-99.222;2023-09-19T14:46:50;24.60;1.00
12413;DHT22;13877;18.896;-99.222;2023-09-19T14:49:17;24.00;1.00
12413;DHT22;13877;18.896;-99.222;2023-09-19T14:51:44;24.40;1.00
12413;DHT22;13877;18.896;-99.222;2023-09-19T14:54:14;24.70;1.00
12413;DHT22;13877;18.896;-99.222;2023-09-19T14:56:44;24.70;1.00
12413;DHT22;13877;18.896;-99.222;2023-09-19T14:59:11;24.90;1.00
12413;DHT22;13877;18.896;-99.222;2023-09-19T15:01:39;24.90;1.00
12413;DHT22;13877;18.896;-99.222;2023-09-19T15:04:07;25.00;1.00
12413;DHT22;13877;18.896;-99.222;2023-09-19T15:06:35;25.10;1.00
12413;DHT22;13877;18.896;-99.222;2023-09-19T15:09:02;25.20;1.00
12413;DHT22;13877;18.896;-99.222;2023-09-19T15:11:31;25.40;1.00
12413;DHT22;13877;18.896;-99.222;2023-09-19T15:13:58;24.70;1.00
12413;DHT22;13877;18.896;-99.222;2023-09-19T15:16:26;25.40;1.00
12413;DHT22;13877;18.896;-99.222;2023-09-19T15:18:55;25.70;1.00
12413;DHT22;13877;18.896;-99.222;2023-09-19T15:21:22;25.50;1.00
12413;DHT22;13877;18.896;-99.222;2023-09-19T15:23:50;25.70;1.00
12413;DHT22;13877;18.896;-99.222;2023-09-19T15:26:17;25.90;1.00
12413;DHT22;13877;18.896;-99.222;2023-09-19T15:28:48;26.00;1.00
12413;DHT22;13877;18.896;-99.222;2023-09-19T15:31:15;26.30;1.00
12413;DHT22;13877;18.896;-99.222;2023-09-19T15:33:43;26.10;1.00
12413;DHT22;13877;18.896;-99.222;2023-09-19T15:36:14;26.20;1.00
12413;DHT22;13877;18.896;-99.222;2023-09-19T15:39:04;26.70;1.00
12413;DHT22;13877;18.896;-99.222;2023-09-19T15:41:45;27.00;1.00
12413;DHT22;13877;18.896;-99.222;2023-09-19T15:44:17;26.80;1.00
12413;DHT22;13877;18.896;-99.222;2023-09-19T15:46:46;26.70;1.00
12413;DHT22;13877;18.896;-99.222;2023-09-19T15:49:13;26.80;1.00
12413;DHT22;13877;18.896;-99.222;2023-09-19T15:51:40;26.70;1.00
12413;DHT22;13877;18.896;-99.222;2023-09-19T15:54:15;26.20;1.00
12413;DHT22;13877;18.896;-99.222;2023-09-19T15:56:43;26.50;1.00
12413;DHT22;13877;18.896;-99.222;2023-09-19T15:59:10;26.90;1.00
12413;DHT22;13877;18.896;-99.222;2023-09-19T16:01:42;27.50;1.00
12413;DHT22;13877;18.896;-99.222;2023-09-19T16:04:10;26.60;1.00
12413;DHT22;13877;18.896;-99.222;2023-09-19T16:06:38;27.30;1.00
12413;DHT22;13877;18.896;-99.222;2023-09-19T16:09:05;27.30;1.00
12413;DHT22;13877;18.896;-99.222;2023-09-19T16:11:34;26.80;1.00